Aérodrome :
LOGIN :

S'inscrire | Disclaimer

   EN    FR    IT 

 










Légende :    VFR   VFR Marginal   IFR   IFR Intensif   IFR Très Intensif
Visi : 
Plafond : 
>= 8 km
>= 3000ft
5 à 8 km
1000 à 3000 ft
1500m à 5 km
500 à 1000 ft
800 à 1500m
200 à 500 ft
< 800m
< 200 ft
Symboles :   Orages  Brouillard  Fortes neiges  Fortes précipitations  Vent > 20 kt
SIGMETs :   Divers  Orages  Givrage  Turbulence  Onde Orograph.  Cendres Volcan.







- Altitude de l'aérodrome : 584 ft
- Voir les cartes d'approche


LFPV - Villacoublay Vélizy

DERNIER METAR :
  • 220030Z AUTO 20006KT 150V230 CAVOK 17/10 Q1010 NOSIG

METARs EXPIRÉS :
  • 220000Z AUTO 21005KT 160V240 CAVOK 18/10 Q1010 NOSIG
  • 212330Z AUTO 22008KT 190V270 CAVOK 19/10 Q1011 NOSIG
  • 212300Z AUTO 22009KT CAVOK 19/10 Q1011 NOSIG
  • 212230Z AUTO 22008KT CAVOK 20/10 Q1010 NOSIG
  • 212200Z AUTO 20006KT 170V230 CAVOK 20/09 Q1010 NOSIG

TAF TAF LFPV
Valide du 21 à 21h jusqu'au 22 à 21h UTC


212000Z 2121/2221 24010KT CAVOK
TEMPO 2204/2208 18015G25KT 4900 -SHRA BKN020 SCT030TCU
PROB30
TEMPO 2216/2219 4000 TSRA SCT030CB
Pas de NOTAMs connus pour ce terrain.



MET'MAP, la Météo Aéronautique d'un coup d'oeil ! - Copyright ORBIFLY Décembre 2007 - Disclaimer

ORBIFLY MET'MAP TEAM :

Programmation & Développement : Alexandra Zaïnal
Conception & Développement : Baudouin d'Aumeries
Co-Programmation & Développement : Marc-Olivier Méhu
Soutien technique & logistique : Manuel Goepfert

Contact : metmap@orbifly.com




SOURCES & CREDITS :

   NOAA